createdAt,value
2022-12-03T00:01:52.216Z,-0.02
2022-12-03T00:04:20.699Z,-0.05
2022-12-03T00:06:49.141Z,-0.03
2022-12-03T00:09:17.865Z,-0.02
2022-12-03T00:11:46.163Z,-0.06
2022-12-03T00:14:14.682Z,-0.07
2022-12-03T00:16:44.602Z,-0.02
2022-12-03T00:19:13.317Z,-0.07
2022-12-03T00:21:41.785Z,-0.04
2022-12-03T00:24:10.478Z,-0.04
2022-12-03T00:26:38.800Z,-0.04
2022-12-03T00:29:07.521Z,-0.04
2022-12-03T00:31:36.027Z,-0.06
2022-12-03T00:34:05.821Z,-0.09
2022-12-03T00:36:34.290Z,-0.13
2022-12-03T00:39:02.587Z,-0.16
2022-12-03T00:41:31.011Z,-0.19
2022-12-03T00:43:59.341Z,-0.22
2022-12-03T00:46:28.217Z,-0.19
2022-12-03T00:48:56.621Z,-0.17
2022-12-03T00:51:26.374Z,-0.17
2022-12-03T00:53:54.770Z,-0.21
2022-12-03T00:56:23.369Z,-0.22
2022-12-03T00:58:51.830Z,-0.20
2022-12-03T01:01:20.575Z,-0.25
2022-12-03T01:03:49.030Z,-0.24
2022-12-03T01:06:17.463Z,-0.22
2022-12-03T01:08:47.188Z,-0.18
2022-12-03T01:11:30.552Z,-0.16
2022-12-03T01:13:59.476Z,-0.21
2022-12-03T01:16:28.039Z,-0.20
2022-12-03T01:18:56.456Z,-0.19
2022-12-03T01:21:24.916Z,-0.20
2022-12-03T01:23:54.738Z,-0.18
2022-12-03T01:26:23.489Z,-0.25
2022-12-03T01:28:51.853Z,-0.18
2022-12-03T01:31:43.641Z,-0.16
2022-12-03T01:34:12.083Z,-0.16
2022-12-03T01:36:40.626Z,-0.10
2022-12-03T01:39:10.630Z,-0.16
2022-12-03T01:41:40.118Z,-0.14
2022-12-03T01:44:19.185Z,-0.15
2022-12-03T01:46:49.181Z,-0.12
2022-12-03T01:49:21.812Z,-0.07
2022-12-03T01:51:53.581Z,-0.12
2022-12-03T01:54:30.934Z,-0.12
2022-12-03T01:57:00.047Z,-0.14
2022-12-03T01:59:35.470Z,-0.09
2022-12-03T02:02:14.113Z,-0.09
2022-12-03T02:04:42.899Z,-0.13
2022-12-03T02:07:24.602Z,-0.08
2022-12-03T02:09:56.261Z,-0.10
2022-12-03T02:12:32.006Z,-0.10
2022-12-03T02:15:01.466Z,-0.11
2022-12-03T02:17:30.395Z,-0.07
2022-12-03T02:20:01.699Z,-0.07
2022-12-03T02:22:42.481Z,-0.04
2022-12-03T02:25:22.237Z,-0.06
2022-12-03T02:27:51.916Z,-0.10
2022-12-03T02:30:23.838Z,-0.11
2022-12-03T02:32:54.273Z,-0.05
2022-12-03T02:35:25.834Z,-0.07
2022-12-03T02:38:00.230Z,-0.07
2022-12-03T02:40:33.657Z,-0.13
2022-12-03T02:43:03.881Z,-0.14
2022-12-03T02:45:37.758Z,-0.14
2022-12-03T02:48:11.960Z,-0.15
2022-12-03T02:50:45.048Z,-0.16
2022-12-03T02:53:18.834Z,-0.13
2022-12-03T02:55:50.150Z,-0.13
2022-12-03T02:58:19.256Z,-0.18
2022-12-03T03:00:49.442Z,-0.19
2022-12-03T03:03:19.906Z,-0.18
2022-12-03T03:05:49.964Z,-0.21
2022-12-03T03:08:19.845Z,-0.22
2022-12-03T03:10:50.822Z,-0.20
2022-12-03T03:13:21.523Z,-0.17
2022-12-03T03:15:50.476Z,-0.19
2022-12-03T03:18:20.025Z,-0.21
2022-12-03T03:20:48.522Z,-0.23
2022-12-03T03:23:20.675Z,-0.24
2022-12-03T03:25:57.378Z,-0.19
2022-12-03T03:28:27.657Z,-0.18
2022-12-03T03:30:57.256Z,-0.17
2022-12-03T03:33:26.067Z,-0.14
2022-12-03T03:35:55.563Z,-0.26
2022-12-03T03:38:25.765Z,-0.20
2022-12-03T03:40:57.451Z,-0.15
2022-12-03T03:43:26.667Z,-0.17
2022-12-03T03:45:55.766Z,-0.20
2022-12-03T03:48:24.673Z,-0.23
2022-12-03T03:50:54.222Z,-0.16
2022-12-03T03:53:24.269Z,-0.19
2022-12-03T03:55:53.293Z,-0.17
2022-12-03T03:58:23.390Z,-0.20
2022-12-03T04:00:52.792Z,-0.21
2022-12-03T04:03:21.228Z,-0.20
2022-12-03T04:05:51.000Z,-0.20
2022-12-03T04:08:19.509Z,-0.15
2022-12-03T04:11:05.413Z,-0.17
2022-12-03T04:13:35.471Z,-0.21
2022-12-03T04:16:03.835Z,-0.20
2022-12-03T04:18:44.394Z,-0.21
2022-12-03T04:21:32.022Z,-0.25
2022-12-03T04:24:00.826Z,-0.28
2022-12-03T04:26:47.006Z,-0.28
2022-12-03T04:29:21.130Z,-0.32
2022-12-03T04:32:07.211Z,-0.26
2022-12-03T04:34:53.406Z,-0.26
2022-12-03T04:37:22.075Z,-0.23
2022-12-03T04:39:50.428Z,-0.20
2022-12-03T04:42:18.744Z,-0.25
2022-12-03T04:44:48.429Z,-0.26
2022-12-03T04:47:19.334Z,-0.29
2022-12-03T04:49:50.788Z,-0.30
2022-12-03T04:52:21.491Z,-0.31
2022-12-03T04:54:49.805Z,-0.25
2022-12-03T04:57:18.126Z,-0.26
2022-12-03T04:59:47.819Z,-0.28
2022-12-03T05:02:16.184Z,-0.31
2022-12-03T05:04:44.506Z,-0.23
2022-12-03T05:07:12.796Z,-0.22
2022-12-03T05:09:41.132Z,-0.16
2022-12-03T05:12:09.465Z,-0.17
2022-12-03T05:14:38.097Z,-0.19
2022-12-03T05:17:07.822Z,-0.25
2022-12-03T05:19:53.773Z,-0.17
2022-12-03T05:22:22.082Z,-0.20
2022-12-03T05:24:50.494Z,-0.27
2022-12-03T05:27:23.311Z,-0.21
2022-12-03T05:29:52.569Z,-0.21
2022-12-03T05:32:22.375Z,-0.25
2022-12-03T05:34:51.104Z,-0.25
2022-12-03T05:37:19.626Z,-0.25
2022-12-03T05:39:47.982Z,-0.29
2022-12-03T05:42:33.818Z,-0.26
2022-12-03T05:45:02.432Z,-0.28
2022-12-03T05:47:32.140Z,-0.27
2022-12-03T05:50:00.482Z,-0.29
2022-12-03T05:52:28.817Z,-0.28
2022-12-03T05:54:57.135Z,-0.27
2022-12-03T05:57:25.479Z,-0.31
2022-12-03T05:59:54.206Z,-0.28
2022-12-03T06:02:22.908Z,-0.24
2022-12-03T06:04:52.819Z,-0.24
2022-12-03T06:07:21.329Z,-0.23
2022-12-03T06:09:49.656Z,-0.28
2022-12-03T06:12:18.084Z,-0.25
2022-12-03T06:14:46.479Z,-0.24
2022-12-03T06:17:15.187Z,-0.26
2022-12-03T06:19:43.535Z,-0.29
2022-12-03T06:22:14.482Z,-0.30
2022-12-03T06:24:42.876Z,-0.31
2022-12-03T06:27:11.307Z,-0.33
2022-12-03T06:29:40.392Z,-0.39
2022-12-03T06:32:08.816Z,-0.43
2022-12-03T06:34:37.233Z,-0.44
2022-12-03T06:37:05.718Z,-0.46
2022-12-03T06:39:35.808Z,-0.44
2022-12-03T06:42:04.241Z,-0.42
2022-12-03T06:44:32.706Z,-0.42
2022-12-03T06:47:01.390Z,-0.39
2022-12-03T06:49:30.161Z,-0.41
2022-12-03T06:51:58.451Z,-0.50
2022-12-03T06:54:27.004Z,-0.47
2022-12-03T06:56:57.056Z,-0.48
2022-12-03T06:59:25.790Z,-0.46
2022-12-03T07:01:54.151Z,-0.48
2022-12-03T07:04:22.524Z,-0.48
2022-12-03T07:06:51.118Z,-0.47
2022-12-03T07:09:19.392Z,-0.46
2022-12-03T07:11:47.704Z,-0.46
2022-12-03T07:14:17.398Z,-0.47
2022-12-03T07:16:45.908Z,-0.48
2022-12-03T07:19:14.553Z,-0.53
2022-12-03T07:21:42.972Z,-0.52
2022-12-03T07:24:11.551Z,-0.53
2022-12-03T07:26:40.045Z,-0.58
2022-12-03T07:29:08.339Z,-0.59
2022-12-03T07:31:38.109Z,-0.56
2022-12-03T07:34:06.476Z,-0.56
2022-12-03T07:36:35.792Z,-0.53
2022-12-03T07:39:04.306Z,-0.57
2022-12-03T07:41:32.704Z,-0.61
2022-12-03T07:44:01.331Z,-0.62
2022-12-03T07:46:29.739Z,-0.65
2022-12-03T07:48:59.482Z,-0.63
2022-12-03T07:51:32.179Z,-0.60
2022-12-03T07:54:00.897Z,-0.62
2022-12-03T07:56:29.240Z,-0.59
2022-12-03T07:58:57.839Z,-0.50
2022-12-03T08:01:26.755Z,-0.47
2022-12-03T08:03:55.149Z,-0.48
2022-12-03T08:06:26.064Z,-0.42
2022-12-03T08:08:54.550Z,-0.41
2022-12-03T08:11:23.327Z,-0.39
2022-12-03T08:13:51.638Z,-0.35
2022-12-03T08:16:23.048Z,-0.32
2022-12-03T08:18:55.872Z,-0.37
2022-12-03T08:21:26.667Z,-0.41
2022-12-03T08:23:55.003Z,-0.38
2022-12-03T08:26:29.169Z,-0.33
2022-12-03T08:28:58.428Z,-0.34
2022-12-03T08:31:33.139Z,-0.40
2022-12-03T08:34:18.336Z,-0.40
2022-12-03T08:36:49.432Z,-0.34
2022-12-03T08:39:34.145Z,-0.34
2022-12-03T08:42:31.720Z,-0.34
2022-12-03T08:45:32.280Z,-0.28
2022-12-03T08:48:04.262Z,-0.21
2022-12-03T08:50:37.321Z,-0.21
2022-12-03T08:53:26.969Z,-0.27
2022-12-03T08:55:58.296Z,-0.28
2022-12-03T08:58:39.193Z,-0.28
2022-12-03T09:01:32.664Z,-0.27
2022-12-03T09:04:22.518Z,-0.26
2022-12-03T09:06:51.765Z,-0.29
2022-12-03T09:09:22.011Z,-0.28
2022-12-03T09:11:50.956Z,-0.30
2022-12-03T09:14:21.262Z,-0.28
2022-12-03T09:16:50.665Z,-0.24
2022-12-03T09:19:19.561Z,-0.20
2022-12-03T09:21:47.875Z,-0.32
2022-12-03T09:24:16.545Z,-0.28
2022-12-03T09:26:46.390Z,-0.26
2022-12-03T09:29:14.666Z,-0.25
2022-12-03T09:31:43.072Z,-0.23
2022-12-03T09:34:12.408Z,-0.22
2022-12-03T09:36:40.817Z,-0.12
2022-12-03T09:39:09.182Z,-0.14
2022-12-03T09:41:37.966Z,-0.22
2022-12-03T09:44:12.264Z,-0.15
2022-12-03T09:46:49.139Z,-0.21
2022-12-03T09:49:19.980Z,-0.21
2022-12-03T09:51:48.773Z,-0.23
2022-12-03T09:54:25.947Z,-0.28
2022-12-03T09:56:56.472Z,-0.30
2022-12-03T09:59:31.441Z,-0.34
2022-12-03T10:02:01.087Z,-0.27
2022-12-03T10:04:30.950Z,-0.28
2022-12-03T10:07:00.367Z,-0.22
2022-12-03T10:09:31.460Z,-0.15
2022-12-03T10:12:01.300Z,-0.14
2022-12-03T10:14:32.179Z,-0.11
2022-12-03T10:17:00.975Z,-0.09
2022-12-03T10:19:32.675Z,-0.11
2022-12-03T10:22:01.357Z,-0.09
2022-12-03T10:24:33.443Z,-0.21
2022-12-03T10:27:04.198Z,-0.17
2022-12-03T10:29:36.043Z,-0.24
2022-12-03T10:32:07.623Z,-0.24
2022-12-03T10:34:38.871Z,-0.20
2022-12-03T10:37:14.982Z,-0.18
2022-12-03T10:40:05.301Z,-0.28
2022-12-03T10:42:36.048Z,-0.23
2022-12-03T10:45:26.712Z,-0.27
2022-12-03T10:48:08.332Z,-0.23
2022-12-03T10:50:37.257Z,-0.31
2022-12-03T10:53:06.109Z,-0.23
2022-12-03T10:55:41.017Z,-0.22
2022-12-03T10:58:21.732Z,-0.26
2022-12-03T11:00:53.717Z,-0.24
2022-12-03T11:03:24.993Z,-0.22
2022-12-03T11:05:56.008Z,-0.22
2022-12-03T11:08:28.847Z,-0.16
2022-12-03T11:10:59.823Z,-0.21
2022-12-03T11:13:52.315Z,-0.11
2022-12-03T11:17:09.229Z,-0.10
2022-12-03T11:19:48.832Z,-0.19
2022-12-03T11:22:46.292Z,-0.20
2022-12-03T11:25:56.623Z,-0.22
2022-12-03T11:28:52.559Z,-0.22
2022-12-03T11:31:42.626Z,-0.20
2022-12-03T11:34:51.482Z,-0.22
2022-12-03T11:37:25.596Z,-0.19
2022-12-03T11:40:39.064Z,-0.19
2022-12-03T11:43:11.963Z,-0.15
2022-12-03T11:45:41.932Z,-0.13
2022-12-03T11:48:16.333Z,-0.16
2022-12-03T11:50:52.817Z,-0.21
2022-12-03T11:53:24.670Z,-0.19
2022-12-03T11:56:06.561Z,-0.16
2022-12-03T11:58:38.228Z,-0.14
2022-12-03T12:01:09.277Z,-0.16
2022-12-03T12:03:44.907Z,-0.21
2022-12-03T12:06:17.473Z,-0.26
2022-12-03T12:08:58.359Z,-0.32
2022-12-03T12:11:30.184Z,-0.28
2022-12-03T12:14:00.055Z,-0.25
2022-12-03T12:16:53.100Z,-0.23
2022-12-03T12:19:37.685Z,-0.17
2022-12-03T12:22:32.890Z,-0.14
2022-12-03T12:25:02.939Z,-0.18
2022-12-03T12:27:36.117Z,-0.15
2022-12-03T12:30:08.808Z,-0.14
2022-12-03T12:32:47.193Z,-0.14
2022-12-03T12:35:20.412Z,-0.16
2022-12-03T12:37:59.022Z,-0.11
2022-12-03T12:40:31.237Z,-0.20
2022-12-03T12:43:10.040Z,-0.16
2022-12-03T12:45:44.196Z,-0.11
2022-12-03T12:48:23.520Z,-0.11
2022-12-03T12:51:00.162Z,-0.10
2022-12-03T12:53:33.992Z,-0.08
2022-12-03T12:56:12.301Z,-0.07
2022-12-03T12:58:43.832Z,-0.05
2022-12-03T13:01:22.369Z,-0.06
2022-12-03T13:03:53.630Z,-0.04
2022-12-03T13:06:28.276Z,-0.09
2022-12-03T13:09:01.203Z,-0.12
2022-12-03T13:11:41.269Z,-0.09
2022-12-03T13:14:18.709Z,-0.14
2022-12-03T13:16:48.162Z,-0.17
2022-12-03T13:19:25.547Z,-0.15
2022-12-03T13:21:57.124Z,-0.12
2022-12-03T13:24:37.034Z,-0.14
2022-12-03T13:27:25.645Z,-0.15
2022-12-03T13:29:58.089Z,-0.12
2022-12-03T13:32:32.481Z,-0.16
2022-12-03T13:35:06.634Z,-0.19
2022-12-03T13:37:35.413Z,-0.21
2022-12-03T13:40:24.829Z,-0.25
2022-12-03T13:42:54.347Z,-0.27
2022-12-03T13:45:42.313Z,-0.17
2022-12-03T13:48:22.393Z,-0.12
2022-12-03T13:50:52.530Z,-0.13
2022-12-03T13:53:27.871Z,-0.04
2022-12-03T13:56:05.111Z,-0.01
2022-12-03T13:58:33.326Z,-0.07
2022-12-03T14:01:01.671Z,-0.06
2022-12-03T14:03:30.264Z,-0.12
2022-12-03T14:05:58.643Z,-0.15
2022-12-03T14:08:26.916Z,-0.13
2022-12-03T14:11:00.214Z,-0.12
2022-12-03T14:13:30.515Z,-0.09
2022-12-03T14:15:58.915Z,-0.13
2022-12-03T14:18:27.283Z,-0.15
2022-12-03T14:20:55.629Z,-0.17
2022-12-03T14:23:23.875Z,-0.15
2022-12-03T14:25:52.473Z,-0.17
2022-12-03T14:28:20.735Z,-0.10
2022-12-03T14:30:51.076Z,-0.15
2022-12-03T14:33:19.308Z,-0.12
2022-12-03T14:35:47.611Z,-0.14
2022-12-03T14:38:15.922Z,-0.15
2022-12-03T14:40:44.205Z,-0.18
2022-12-03T14:43:12.757Z,-0.15
2022-12-03T14:45:41.080Z,-0.10
2022-12-03T14:48:10.781Z,-0.17
2022-12-03T14:50:39.028Z,-0.21
2022-12-03T14:53:10.508Z,-0.35
2022-12-03T14:55:38.767Z,-0.31
2022-12-03T14:58:07.044Z,-0.42
2022-12-03T15:00:35.303Z,-0.42
2022-12-03T15:03:03.645Z,-0.37
2022-12-03T15:05:33.311Z,-0.31
2022-12-03T15:08:01.679Z,-0.37
2022-12-03T15:10:30.325Z,-0.40
2022-12-03T15:12:58.600Z,-0.39
2022-12-03T15:15:27.121Z,-0.42
2022-12-03T15:17:55.763Z,-0.48
2022-12-03T15:20:24.332Z,-0.44
2022-12-03T15:22:53.934Z,-0.42
2022-12-03T15:25:25.490Z,-0.41
2022-12-03T15:27:53.999Z,-0.42
2022-12-03T15:30:22.226Z,-0.44
2022-12-03T15:32:50.801Z,-0.45
2022-12-03T15:35:19.095Z,-0.44
2022-12-03T15:37:47.367Z,-0.41
2022-12-03T15:40:17.368Z,-0.43
2022-12-03T15:42:45.664Z,-0.41
2022-12-03T15:45:15.481Z,-0.40
2022-12-03T15:47:44.538Z,-0.37
2022-12-03T15:50:14.204Z,-0.43
2022-12-03T15:52:42.636Z,-0.41
2022-12-03T15:55:11.600Z,-0.44
2022-12-03T15:57:41.277Z,-0.41
2022-12-03T16:00:12.544Z,-0.41
2022-12-03T16:02:41.188Z,-0.38
2022-12-03T16:05:12.738Z,-0.43
2022-12-03T16:07:41.923Z,-0.38
2022-12-03T16:10:13.176Z,-0.41
2022-12-03T16:12:42.947Z,-0.45
2022-12-03T16:15:11.767Z,-0.40
2022-12-03T16:17:40.108Z,-0.37
2022-12-03T16:20:09.980Z,-0.37
2022-12-03T16:22:38.588Z,-0.34
2022-12-03T16:25:08.344Z,-0.37
2022-12-03T16:27:38.047Z,-0.29
2022-12-03T16:30:09.797Z,-0.28
2022-12-03T16:32:38.178Z,-0.27
2022-12-03T16:35:07.411Z,-0.26
2022-12-03T16:37:35.766Z,-0.23
2022-12-03T16:40:04.400Z,-0.21
2022-12-03T16:42:32.705Z,-0.23
2022-12-03T16:45:33.369Z,-0.31
2022-12-03T16:48:03.821Z,-0.32
2022-12-03T16:50:32.041Z,-0.38
2022-12-03T16:53:00.728Z,-0.37
2022-12-03T16:55:29.085Z,-0.34
2022-12-03T16:57:57.418Z,-0.38
2022-12-03T17:00:26.304Z,-0.35
2022-12-03T17:02:54.661Z,-0.34
2022-12-03T17:05:24.371Z,-0.33
2022-12-03T17:07:52.688Z,-0.33
2022-12-03T17:10:21.179Z,-0.32
2022-12-03T17:13:08.651Z,-0.30
2022-12-03T17:15:38.587Z,-0.30
2022-12-03T17:18:07.926Z,-0.32
2022-12-03T17:20:38.484Z,-0.30
2022-12-03T17:23:06.904Z,-0.22
2022-12-03T17:25:35.708Z,-0.22
2022-12-03T17:28:04.116Z,-0.22
2022-12-03T17:30:32.410Z,-0.17
2022-12-03T17:33:01.058Z,-0.21
2022-12-03T17:35:29.577Z,-0.25
2022-12-03T17:37:59.276Z,-0.22
2022-12-03T17:40:27.932Z,-0.22
2022-12-03T17:42:56.289Z,-0.16
2022-12-03T17:45:24.603Z,-0.12
2022-12-03T17:47:53.202Z,-0.14
2022-12-03T17:50:21.782Z,-0.17
2022-12-03T17:52:50.071Z,-0.13
2022-12-03T17:55:30.961Z,-0.11
2022-12-03T17:58:04.745Z,-0.23
2022-12-03T18:00:33.537Z,-0.16
2022-12-03T18:03:02.046Z,-0.14
2022-12-03T18:05:30.380Z,-0.19
2022-12-03T18:07:58.857Z,-0.21
2022-12-03T18:10:28.938Z,-0.15
2022-12-03T18:13:01.702Z,-0.16
2022-12-03T18:15:31.056Z,-0.17
2022-12-03T18:17:59.659Z,-0.12
2022-12-03T18:20:28.399Z,-0.10
2022-12-03T18:22:58.203Z,-0.11
2022-12-03T18:25:28.797Z,-0.15
2022-12-03T18:27:57.205Z,-0.12
2022-12-03T18:30:25.704Z,-0.14
2022-12-03T18:32:53.974Z,-0.17
2022-12-03T18:35:22.697Z,-0.17
2022-12-03T18:37:52.326Z,-0.15
2022-12-03T18:40:24.935Z,-0.17
2022-12-03T18:42:56.956Z,-0.16
2022-12-03T18:45:25.460Z,-0.16
2022-12-03T18:47:54.742Z,-0.17
2022-12-03T18:50:23.298Z,-0.14
2022-12-03T18:52:51.609Z,-0.15
2022-12-03T18:55:22.824Z,-0.15
2022-12-03T18:57:51.119Z,-0.22
2022-12-03T19:00:21.637Z,-0.25
2022-12-03T19:03:05.340Z,-0.17
2022-12-03T19:05:35.982Z,-0.16
2022-12-03T19:08:12.570Z,-0.16
2022-12-03T19:10:41.892Z,-0.17
2022-12-03T19:13:10.375Z,-0.17
2022-12-03T19:15:41.179Z,-0.13
2022-12-03T19:18:09.540Z,-0.21
2022-12-03T19:20:41.840Z,-0.13
2022-12-03T19:23:10.267Z,-0.13
2022-12-03T19:25:38.773Z,-0.20
2022-12-03T19:28:07.764Z,-0.18
2022-12-03T19:30:36.259Z,-0.14
2022-12-03T19:33:06.015Z,-0.15
2022-12-03T19:35:40.091Z,-0.13
2022-12-03T19:38:08.478Z,-0.17
2022-12-03T19:40:36.844Z,-0.15
2022-12-03T19:43:05.170Z,-0.23
2022-12-03T19:45:33.479Z,-0.29
2022-12-03T19:48:02.086Z,-0.25
2022-12-03T19:50:31.919Z,-0.24
2022-12-03T19:53:00.187Z,-0.23
2022-12-03T19:55:28.611Z,-0.29
2022-12-03T19:57:56.946Z,-0.25
2022-12-03T20:00:25.298Z,-0.30
2022-12-03T20:02:53.726Z,-0.28
2022-12-03T20:05:22.100Z,-0.27
2022-12-03T20:07:51.890Z,-0.30
2022-12-03T20:10:20.320Z,-0.16
2022-12-03T20:12:48.734Z,-0.14
2022-12-03T20:15:17.314Z,-0.20
2022-12-03T20:17:45.691Z,-0.22
2022-12-03T20:20:14.650Z,-0.24
2022-12-03T20:22:43.017Z,-0.24
2022-12-03T20:25:13.434Z,-0.27
2022-12-03T20:27:41.797Z,-0.23
2022-12-03T20:30:11.455Z,-0.19
2022-12-03T20:32:45.120Z,-0.14
2022-12-03T20:35:13.902Z,-0.16
2022-12-03T20:37:42.235Z,-0.17
2022-12-03T20:40:13.072Z,-0.15
2022-12-03T20:42:41.407Z,-0.17
2022-12-03T20:45:11.398Z,-0.11
2022-12-03T20:47:39.746Z,-0.13
2022-12-03T20:50:09.449Z,-0.14
2022-12-03T20:52:37.964Z,-0.16
2022-12-03T20:55:07.141Z,-0.14
2022-12-03T20:57:36.857Z,-0.16
2022-12-03T21:00:07.352Z,-0.14
2022-12-03T21:02:35.744Z,-0.20
2022-12-03T21:05:04.349Z,-0.12
2022-12-03T21:07:32.852Z,-0.11
2022-12-03T21:10:01.417Z,-0.12
2022-12-03T21:12:29.870Z,-0.13
2022-12-03T21:14:59.470Z,-0.10
2022-12-03T21:17:28.234Z,-0.14
2022-12-03T21:19:56.876Z,-0.15
2022-12-03T21:22:25.526Z,-0.16
2022-12-03T21:24:53.893Z,-0.14
2022-12-03T21:27:22.525Z,-0.12
2022-12-03T21:29:51.260Z,-0.09
2022-12-03T21:32:21.070Z,-0.16
2022-12-03T21:34:49.458Z,-0.12
2022-12-03T21:37:17.951Z,-0.14
2022-12-03T21:39:46.247Z,-0.17
2022-12-03T21:42:34.100Z,-0.13
2022-12-03T21:45:03.552Z,-0.17
2022-12-03T21:47:37.348Z,-0.17
2022-12-03T21:50:08.371Z,-0.21
2022-12-03T21:52:36.995Z,-0.27
2022-12-03T21:55:06.330Z,-0.23
2022-12-03T21:57:37.595Z,-0.23
2022-12-03T22:00:09.047Z,-0.20
2022-12-03T22:02:42.046Z,-0.16
2022-12-03T22:05:12.218Z,-0.13
2022-12-03T22:07:41.752Z,-0.18
2022-12-03T22:10:12.525Z,-0.18
2022-12-03T22:12:41.981Z,-0.11
2022-12-03T22:15:18.128Z,-0.11
2022-12-03T22:17:48.891Z,-0.13
2022-12-03T22:20:17.818Z,-0.08
2022-12-03T22:22:46.275Z,-0.06
2022-12-03T22:25:14.671Z,-0.08
2022-12-03T22:27:43.051Z,-0.07
2022-12-03T22:30:12.051Z,-0.12
2022-12-03T22:32:40.561Z,-0.07
2022-12-03T22:35:10.702Z,-0.07
2022-12-03T22:37:39.049Z,-0.04
2022-12-03T22:40:08.918Z,-0.03
2022-12-03T22:42:37.224Z,0.01
2022-12-03T22:45:07.080Z,-0.04
2022-12-03T22:47:35.670Z,-0.05
2022-12-03T22:50:04.212Z,0.00
2022-12-03T22:52:33.994Z,0.04
2022-12-03T22:55:02.331Z,0.01
2022-12-03T22:57:31.848Z,-0.03
2022-12-03T23:00:00.220Z,-0.03
2022-12-03T23:02:28.730Z,-0.01
2022-12-03T23:04:57.373Z,0.02
2022-12-03T23:07:25.857Z,0.06
2022-12-03T23:09:55.971Z,0.01
2022-12-03T23:12:24.759Z,-0.03
2022-12-03T23:14:55.283Z,0.01
2022-12-03T23:17:23.650Z,-0.01
2022-12-03T23:19:52.144Z,0.07
2022-12-03T23:22:20.541Z,0.06
2022-12-03T23:24:49.399Z,0.02
2022-12-03T23:27:19.126Z,0.02
2022-12-03T23:29:47.604Z,0.01
2022-12-03T23:32:16.702Z,-0.02
2022-12-03T23:34:45.419Z,-0.03
2022-12-03T23:37:13.733Z,-0.05
2022-12-03T23:39:42.124Z,-0.07
2022-12-03T23:42:10.437Z,-0.02
2022-12-03T23:44:40.096Z,0.01
2022-12-03T23:47:08.521Z,0.02
2022-12-03T23:49:37.019Z,-0.02
2022-12-03T23:52:05.449Z,0.00
2022-12-03T23:54:34.057Z,0.01
2022-12-03T23:57:02.335Z,0.01
2022-12-03T23:59:31.058Z,0.03
